Time;durP1;ratioP1;P1;durP2;ratioP2;P2;SDS_P1;SDS_P2;PMS_P1;PMS_P2;Temp;Humidity;BMP_temperature;BMP_pressure;BME280_temperature;BME280_humidity;BME280_pressure;Samples;Min_cycle;Max_cycle;Signal;HPM_P1;HPM_P2
2024/02/24 00:01:09;;;;;;;5.97;2.33;;;4.70;99.90;;;;;;8464163;28;20047;-70
2024/02/24 00:05:11;;;;;;;5.57;2.15;;;4.70;99.90;;;;;;8463112;28;20036;-71
2024/02/24 00:09:13;;;;;;;4.75;2.00;;;4.70;99.90;;;;;;8462833;28;20131;-71
2024/02/24 00:13:15;;;;;;;4.07;1.77;;;4.70;99.90;;;;;;8465043;28;20054;-71
2024/02/24 00:17:17;;;;;;;4.20;1.80;;;4.60;99.90;;;;;;8458848;28;20051;-71
2024/02/24 00:21:19;;;;;;;2.60;1.23;;;4.60;99.90;;;;;;8462554;28;20056;-71
2024/02/24 00:25:20;;;;;;;3.38;1.30;;;4.60;99.90;;;;;;8463807;27;20126;-71
2024/02/24 00:29:22;;;;;;;5.50;1.50;;;4.60;99.90;;;;;;8464505;27;20081;-71
2024/02/24 00:33:24;;;;;;;2.42;1.10;;;4.60;99.90;;;;;;8462395;28;20063;-71
2024/02/24 00:37:26;;;;;;;3.15;1.02;;;4.60;99.90;;;;;;8463918;28;20056;-71
2024/02/24 00:41:28;;;;;;;3.17;1.25;;;4.50;99.90;;;;;;8462439;28;20043;-71
2024/02/24 00:45:30;;;;;;;3.47;1.10;;;4.50;99.90;;;;;;8462836;27;20524;-71
2024/02/24 00:49:31;;;;;;;2.45;1.10;;;4.50;99.90;;;;;;8462294;28;20047;-71
2024/02/24 00:53:33;;;;;;;2.75;1.20;;;4.50;99.90;;;;;;8459219;28;20130;-71
2024/02/24 00:57:35;;;;;;;5.65;1.30;;;4.50;99.90;;;;;;8462038;28;20130;-71
2024/02/24 01:01:37;;;;;;;3.10;1.25;;;4.50;99.90;;;;;;8459692;28;20051;-71
2024/02/24 01:05:41;;;;;;;2.90;1.20;;;4.40;99.90;;;;;;8456020;28;20104;-71
2024/02/24 01:09:43;;;;;;;2.35;1.10;;;4.40;99.90;;;;;;8461783;27;20048;-71
2024/02/24 01:13:45;;;;;;;3.35;1.20;;;4.40;99.90;;;;;;8460164;28;20051;-71
2024/02/24 01:17:49;;;;;;;2.85;1.23;;;4.40;99.90;;;;;;8450080;28;20052;-71
2024/02/24 01:21:50;;;;;;;3.67;1.40;;;4.40;99.90;;;;;;8462418;28;20093;-70
2024/02/24 01:25:55;;;;;;;4.35;1.30;;;4.40;99.90;;;;;;8462189;28;20096;-71
2024/02/24 01:29:57;;;;;;;4.45;1.50;;;4.40;99.90;;;;;;8462248;27;20040;-71
2024/02/24 01:33:59;;;;;;;3.38;1.20;;;4.40;99.90;;;;;;8458842;28;20505;-71
2024/02/24 01:38:02;;;;;;;4.85;1.50;;;4.40;99.90;;;;;;8460666;28;20056;-71
2024/02/24 01:42:04;;;;;;;3.08;1.40;;;4.40;99.90;;;;;;8461429;27;20054;-71
2024/02/24 01:46:07;;;;;;;4.72;1.42;;;4.40;99.90;;;;;;8460259;28;20044;-71
2024/02/24 01:50:12;;;;;;;4.47;1.42;;;4.30;99.90;;;;;;8459658;28;20479;-70
2024/02/24 01:54:15;;;;;;;3.25;1.50;;;4.30;99.90;;;;;;8458494;28;20059;-71
2024/02/24 01:58:18;;;;;;;3.47;1.50;;;4.30;99.90;;;;;;8459365;28;20048;-71
2024/02/24 02:02:20;;;;;;;2.65;1.23;;;4.30;99.90;;;;;;8455653;28;20101;-70
2024/02/24 02:06:24;;;;;;;3.60;1.45;;;4.30;99.90;;;;;;8458460;27;20058;-71
2024/02/24 02:10:26;;;;;;;4.00;1.48;;;4.30;99.90;;;;;;8460269;28;20040;-71
2024/02/24 02:14:28;;;;;;;3.85;1.45;;;4.30;99.90;;;;;;8447733;27;20058;-71
2024/02/24 02:18:30;;;;;;;3.05;1.42;;;4.20;99.90;;;;;;8457188;27;20065;-71
2024/02/24 02:22:36;;;;;;;3.63;1.63;;;4.20;99.90;;;;;;8458180;28;20075;-71
2024/02/24 02:26:38;;;;;;;4.45;1.70;;;4.20;99.90;;;;;;8455499;28;20044;-71
2024/02/24 02:30:39;;;;;;;4.72;1.95;;;4.30;99.90;;;;;;8459966;28;20055;-71
2024/02/24 02:34:41;;;;;;;5.05;1.90;;;4.30;99.90;;;;;;8452095;28;20048;-71
2024/02/24 02:38:43;;;;;;;3.85;1.80;;;4.30;99.90;;;;;;8458466;28;20063;-71
2024/02/24 02:42:45;;;;;;;4.03;1.80;;;4.30;99.90;;;;;;8458719;28;20134;-71
2024/02/24 02:46:48;;;;;;;6.07;2.10;;;4.30;99.90;;;;;;8458789;27;20059;-71
2024/02/24 02:50:50;;;;;;;3.85;1.92;;;4.30;99.90;;;;;;8458753;28;20093;-71
2024/02/24 02:54:51;;;;;;;4.05;1.83;;;4.40;99.90;;;;;;8457889;28;20498;-71
2024/02/24 02:58:53;;;;;;;4.10;1.83;;;4.40;99.90;;;;;;8459334;28;20182;-71
2024/02/24 03:02:55;;;;;;;4.00;1.80;;;4.30;99.90;;;;;;8459166;28;20050;-71
2024/02/24 03:06:57;;;;;;;5.03;1.60;;;4.40;99.90;;;;;;8456357;28;20047;-71
2024/02/24 03:11:02;;;;;;;3.47;1.77;;;4.40;99.90;;;;;;8458283;28;20044;-71
2024/02/24 03:15:04;;;;;;;4.18;1.80;;;4.40;99.90;;;;;;8454207;28;20406;-71
2024/02/24 03:19:08;;;;;;;4.57;2.00;;;4.40;99.90;;;;;;8456302;28;20077;-71
2024/02/24 03:23:10;;;;;;;4.75;1.90;;;4.40;99.90;;;;;;8460912;28;20040;-71
2024/02/24 03:27:12;;;;;;;5.22;2.22;;;4.40;99.90;;;;;;8454361;28;20813;-71
2024/02/24 03:31:14;;;;;;;3.80;1.95;;;4.40;99.90;;;;;;8457127;28;20448;-71
2024/02/24 03:35:16;;;;;;;5.13;1.95;;;4.40;99.90;;;;;;8458677;28;20048;-71
2024/02/24 03:39:21;;;;;;;3.90;1.90;;;4.40;99.90;;;;;;8457643;28;20086;-71
2024/02/24 03:43:23;;;;;;;3.08;1.35;;;4.40;99.90;;;;;;8459305;28;20043;-71
2024/02/24 03:47:25;;;;;;;4.35;2.17;;;4.40;99.90;;;;;;8457214;28;20032;-71
2024/02/24 03:51:27;;;;;;;5.20;2.20;;;4.40;99.90;;;;;;8456936;28;20096;-71
2024/02/24 03:55:28;;;;;;;4.93;2.10;;;4.40;99.90;;;;;;8453612;28;20059;-71
2024/02/24 03:59:30;;;;;;;5.20;2.20;;;4.30;99.90;;;;;;8456149;28;20137;-71
2024/02/24 04:03:32;;;;;;;5.68;1.90;;;4.30;99.90;;;;;;8458299;28;20463;-71
2024/02/24 04:07:34;;;;;;;3.67;1.70;;;4.30;99.90;;;;;;8458656;28;20040;-71
2024/02/24 04:11:36;;;;;;;3.65;1.63;;;4.30;99.90;;;;;;8456983;28;20040;-71
2024/02/24 04:15:37;;;;;;;4.47;2.20;;;4.20;99.90;;;;;;8450005;28;20483;-71
2024/02/24 04:19:39;;;;;;;4.25;1.95;;;4.20;99.90;;;;;;8456020;28;20048;-71
2024/02/24 04:23:41;;;;;;;4.68;2.10;;;4.20;99.90;;;;;;8455502;28;20051;-71
2024/02/24 04:27:43;;;;;;;4.30;2.13;;;4.20;99.90;;;;;;8463758;27;20100;-71
2024/02/24 04:31:44;;;;;;;3.80;1.80;;;4.20;99.90;;;;;;8463088;28;20684;-70
2024/02/24 04:35:46;;;;;;;4.40;2.28;;;4.20;99.90;;;;;;8458711;27;20055;-71
2024/02/24 04:39:48;;;;;;;4.80;2.15;;;4.20;99.90;;;;;;8463362;28;20079;-70
2024/02/24 04:43:50;;;;;;;4.40;2.17;;;4.20;99.90;;;;;;8463011;28;20444;-71
2024/02/24 04:47:52;;;;;;;5.50;2.15;;;4.20;99.90;;;;;;8461930;28;20089;-71
2024/02/24 04:51:54;;;;;;;4.60;2.20;;;4.20;99.90;;;;;;8481506;27;20093;-70
2024/02/24 04:55:56;;;;;;;3.58;1.77;;;4.20;99.90;;;;;;8455636;28;20048;-71
2024/02/24 04:59:58;;;;;;;4.97;2.38;;;4.20;99.90;;;;;;8463074;28;20062;-71
2024/02/24 05:04:00;;;;;;;5.43;2.10;;;4.20;99.90;;;;;;8459992;28;20100;-71
2024/02/24 05:08:02;;;;;;;5.05;2.13;;;4.20;99.90;;;;;;8456317;28;20501;-71
2024/02/24 05:12:04;;;;;;;4.85;2.08;;;4.20;99.90;;;;;;8455116;28;20089;-71
2024/02/24 05:16:06;;;;;;;5.57;2.38;;;4.20;99.90;;;;;;8451998;28;20079;-71
2024/02/24 05:20:09;;;;;;;5.18;2.53;;;4.20;99.90;;;;;;8464212;27;20410;-71
2024/02/24 05:24:10;;;;;;;4.95;2.30;;;4.30;99.90;;;;;;8462847;27;20640;-71
2024/02/24 05:28:12;;;;;;;4.93;2.60;;;4.30;99.90;;;;;;8457837;28;20477;-70
2024/02/24 05:32:16;;;;;;;4.07;1.88;;;4.30;99.90;;;;;;8453185;28;20390;-71
2024/02/24 05:36:18;;;;;;;4.97;2.63;;;4.30;99.90;;;;;;8459627;28;20044;-70
2024/02/24 05:40:20;;;;;;;5.53;2.45;;;4.40;99.90;;;;;;8456576;27;20043;-71
2024/02/24 05:44:22;;;;;;;5.30;2.47;;;4.40;99.90;;;;;;8461517;28;20104;-71
2024/02/24 05:48:24;;;;;;;6.00;2.90;;;4.40;99.90;;;;;;8460099;28;20043;-71
2024/02/24 05:52:26;;;;;;;7.78;2.72;;;4.40;99.90;;;;;;8460295;28;20082;-71
2024/02/24 05:56:28;;;;;;;5.88;3.10;;;4.40;99.90;;;;;;8459967;28;20052;-70
2024/02/24 06:00:29;;;;;;;4.93;2.53;;;4.50;99.90;;;;;;8460151;28;20092;-70
2024/02/24 06:04:31;;;;;;;5.57;2.88;;;4.50;99.90;;;;;;8459384;28;20046;-70
2024/02/24 06:08:33;;;;;;;7.40;3.30;;;4.50;99.90;;;;;;8460395;28;20108;-71
2024/02/24 06:12:35;;;;;;;6.68;3.42;;;4.50;99.90;;;;;;8452633;28;21331;-71
2024/02/24 06:16:37;;;;;;;8.98;4.00;;;4.50;99.90;;;;;;8454585;28;20050;-70
2024/02/24 06:20:39;;;;;;;7.65;3.72;;;4.50;99.90;;;;;;8461619;28;20131;-71
2024/02/24 06:24:41;;;;;;;10.13;5.35;;;4.40;99.90;;;;;;8453703;28;20502;-71
2024/02/24 06:28:43;;;;;;;8.50;3.65;;;4.40;99.90;;;;;;8458026;28;20078;-70
2024/02/24 06:32:44;;;;;;;8.15;4.18;;;4.40;99.90;;;;;;8457855;27;20441;-71
2024/02/24 06:36:46;;;;;;;9.32;4.50;;;4.40;99.90;;;;;;8459183;28;20079;-71
2024/02/24 06:40:48;;;;;;;9.23;3.88;;;4.40;99.90;;;;;;8456468;28;20051;-71
2024/02/24 06:44:50;;;;;;;8.15;4.30;;;4.40;99.90;;;;;;8458113;27;20082;-71
2024/02/24 06:48:52;;;;;;;10.13;5.47;;;4.40;99.90;;;;;;8458592;27;20086;-71
2024/02/24 06:52:54;;;;;;;9.68;4.82;;;4.50;99.90;;;;;;8429284;28;20052;-71
2024/02/24 06:56:56;;;;;;;8.25;4.72;;;4.60;99.90;;;;;;8454653;28;20044;-71
2024/02/24 07:01:03;;;;;;;9.77;4.55;;;4.60;99.90;;;;;;8455976;28;20054;-71
2024/02/24 07:05:11;;;;;;;8.38;4.57;;;4.70;99.90;;;;;;8458585;28;20150;-71
2024/02/24 07:09:13;;;;;;;8.35;4.68;;;4.70;99.90;;;;;;8454974;28;20734;-71
2024/02/24 07:13:14;;;;;;;8.75;4.75;;;4.80;99.90;;;;;;8455549;28;20052;-71
2024/02/24 07:17:16;;;;;;;8.20;4.15;;;4.80;99.90;;;;;;8449208;28;20112;-71
2024/02/24 07:21:19;;;;;;;7.78;4.18;;;4.90;99.90;;;;;;8455876;27;20075;-71
2024/02/24 07:25:21;;;;;;;7.85;4.10;;;4.90;99.90;;;;;;8453996;28;20410;-70
2024/02/24 07:29:23;;;;;;;8.63;4.47;;;4.90;99.90;;;;;;8454378;28;20039;-71
2024/02/24 07:33:24;;;;;;;6.97;3.47;;;5.00;99.90;;;;;;8453800;28;20044;-71
2024/02/24 07:37:26;;;;;;;8.35;4.22;;;5.00;99.90;;;;;;8458756;28;20040;-71
2024/02/24 07:41:28;;;;;;;7.95;4.32;;;5.10;99.90;;;;;;8455165;28;20055;-70
2024/02/24 07:45:30;;;;;;;7.78;4.10;;;5.10;99.90;;;;;;8449558;28;20467;-71
2024/02/24 07:49:32;;;;;;;7.57;4.13;;;5.20;99.90;;;;;;8452279;28;20043;-71
2024/02/24 07:53:34;;;;;;;8.35;3.95;;;5.20;99.90;;;;;;8453677;28;20055;-71
2024/02/24 07:57:35;;;;;;;8.23;4.55;;;5.20;99.90;;;;;;8454695;28;20064;-71
2024/02/24 08:01:37;;;;;;;8.27;4.50;;;5.20;99.90;;;;;;8457123;28;20051;-71
2024/02/24 08:05:39;;;;;;;7.25;4.43;;;5.30;99.90;;;;;;8459487;27;20100;-71
2024/02/24 08:09:41;;;;;;;8.95;4.65;;;5.30;99.90;;;;;;8463645;27;20067;-71
2024/02/24 08:13:42;;;;;;;8.48;4.55;;;5.30;99.90;;;;;;8461825;28;20054;-71
2024/02/24 08:17:44;;;;;;;7.45;3.40;;;5.40;99.90;;;;;;8455126;28;20456;-71
2024/02/24 08:21:46;;;;;;;8.30;4.45;;;5.40;99.90;;;;;;8462688;28;20142;-71
2024/02/24 08:25:48;;;;;;;7.25;3.75;;;5.50;99.90;;;;;;8463013;28;20100;-71
2024/02/24 08:29:50;;;;;;;6.88;3.80;;;5.50;99.90;;;;;;8463989;28;20044;-70
2024/02/24 08:33:52;;;;;;;9.30;4.38;;;5.60;99.90;;;;;;8460319;28;20054;-70
2024/02/24 08:37:53;;;;;;;8.77;4.32;;;5.70;99.90;;;;;;8464390;27;20195;-70
2024/02/24 08:41:56;;;;;;;8.75;4.93;;;5.60;99.90;;;;;;8464039;27;20043;-71
2024/02/24 08:45:58;;;;;;;7.82;4.78;;;5.70;99.90;;;;;;8461397;28;20438;-71
2024/02/24 08:50:00;;;;;;;7.28;4.00;;;5.70;99.90;;;;;;8463815;28;20039;-71
2024/02/24 08:54:02;;;;;;;7.55;4.60;;;5.60;99.90;;;;;;8457315;27;20047;-70
2024/02/24 08:58:04;;;;;;;9.80;4.85;;;5.40;99.90;;;;;;8460000;28;20048;-70
2024/02/24 09:02:06;;;;;;;7.82;3.92;;;5.30;99.90;;;;;;8451581;28;20536;-70
2024/02/24 09:06:08;;;;;;;5.75;3.42;;;5.30;99.90;;;;;;8452493;27;20097;-70
2024/02/24 09:10:10;;;;;;;6.25;3.63;;;5.30;99.90;;;;;;8457334;27;20043;-70
2024/02/24 09:14:13;;;;;;;6.50;3.58;;;5.40;99.90;;;;;;8454326;28;20051;-70
2024/02/24 09:18:16;;;;;;;6.35;3.45;;;5.50;99.90;;;;;;8453041;28;20581;-70
2024/02/24 09:22:19;;;;;;;6.50;3.88;;;5.60;99.90;;;;;;8460583;28;20402;-70
2024/02/24 09:26:21;;;;;;;8.50;4.85;;;5.80;99.90;;;;;;8459667;27;20044;-71
2024/02/24 09:30:23;;;;;;;7.78;4.22;;;6.00;99.90;;;;;;8459777;28;20109;-71
2024/02/24 09:34:25;;;;;;;10.82;4.80;;;6.10;99.90;;;;;;8460217;28;20051;-70
2024/02/24 09:38:27;;;;;;;9.70;4.45;;;6.10;99.90;;;;;;8457492;28;20047;-71
2024/02/24 09:42:29;;;;;;;8.45;4.97;;;6.20;99.90;;;;;;8459718;27;20046;-70
2024/02/24 09:46:33;;;;;;;9.63;4.88;;;6.20;99.90;;;;;;8460255;28;20052;-71
2024/02/24 09:50:38;;;;;;;10.53;6.17;;;6.20;99.90;;;;;;8458103;28;20498;-71
2024/02/24 09:54:40;;;;;;;12.13;6.13;;;6.20;99.90;;;;;;8459252;28;20702;-70
2024/02/24 09:58:43;;;;;;;11.98;7.03;;;6.30;99.90;;;;;;8458741;27;20104;-70
2024/02/24 10:02:45;;;;;;;12.10;6.80;;;6.40;99.90;;;;;;8458216;28;20059;-70
2024/02/24 10:06:47;;;;;;;13.73;6.93;;;6.40;99.90;;;;;;8457527;27;20044;-70
2024/02/24 10:10:49;;;;;;;12.13;6.78;;;6.30;99.90;;;;;;8453485;28;20047;-70
2024/02/24 10:14:51;;;;;;;9.43;5.05;;;6.30;99.90;;;;;;8452363;28;20483;-70
2024/02/24 10:18:53;;;;;;;11.52;6.57;;;6.40;99.90;;;;;;8460128;27;20048;-70
2024/02/24 10:22:56;;;;;;;10.60;5.82;;;6.30;99.90;;;;;;8458002;28;20459;-71
2024/02/24 10:26:59;;;;;;;9.65;6.15;;;6.20;99.90;;;;;;8460146;28;20040;-70
2024/02/24 10:31:01;;;;;;;10.07;5.13;;;6.10;99.90;;;;;;8457085;27;20055;-71
2024/02/24 10:35:04;;;;;;;10.32;6.45;;;6.10;99.90;;;;;;8457083;28;20044;-71
2024/02/24 10:39:06;;;;;;;10.13;5.70;;;6.10;99.90;;;;;;8458735;28;20104;-71
2024/02/24 10:43:09;;;;;;;12.68;5.68;;;6.10;99.90;;;;;;8458567;28;20393;-71
2024/02/24 10:47:11;;;;;;;9.13;4.82;;;6.10;99.90;;;;;;8458355;27;20048;-71
2024/02/24 10:51:13;;;;;;;10.32;6.30;;;6.10;99.90;;;;;;8456859;28;20036;-71
2024/02/24 10:55:21;;;;;;;13.02;6.70;;;6.00;99.90;;;;;;8460549;28;20052;-71
2024/02/24 10:59:28;;;;;;;11.25;5.47;;;5.90;99.90;;;;;;8450508;28;20474;-71
2024/02/24 11:03:31;;;;;;;11.23;6.03;;;5.70;99.90;;;;;;8478995;27;20058;-71
2024/02/24 11:07:33;;;;;;;13.07;5.88;;;5.70;99.90;;;;;;8457258;28;20285;-71
2024/02/24 11:11:35;;;;;;;10.43;5.63;;;5.70;99.90;;;;;;8452541;28;20044;-71
2024/02/24 11:15:37;;;;;;;10.52;5.50;;;5.70;99.90;;;;;;8443748;28;20047;-71
2024/02/24 11:19:46;;;;;;;10.13;5.47;;;5.70;99.90;;;;;;8454589;28;20047;-72
2024/02/24 11:23:49;;;;;;;8.05;4.35;;;5.70;99.90;;;;;;8453238;28;20048;-71
2024/02/24 11:27:56;;;;;;;7.15;3.90;;;5.70;99.90;;;;;;8453873;28;20053;-71
2024/02/24 11:32:12;;;;;;;5.47;2.97;;;5.60;99.90;;;;;;8451323;28;20150;-71
2024/02/24 11:36:15;;;;;;;9.60;4.05;;;5.50;99.90;;;;;;8458034;27;20040;-71
2024/02/24 11:40:17;;;;;;;6.15;3.47;;;5.30;99.90;;;;;;8461889;28;20047;-71
2024/02/24 11:44:19;;;;;;;7.65;3.45;;;5.30;99.90;;;;;;8458166;28;20085;-71
2024/02/24 11:48:21;;;;;;;7.20;4.18;;;5.30;99.90;;;;;;8462228;27;20130;-71
2024/02/24 11:52:23;;;;;;;8.05;4.07;;;5.40;99.90;;;;;;8458497;27;20050;-71
2024/02/24 11:56:25;;;;;;;8.73;3.28;;;5.50;99.90;;;;;;8457841;28;20052;-71
2024/02/24 12:00:27;;;;;;;5.75;3.00;;;5.50;99.90;;;;;;8439412;27;20055;-71
2024/02/24 12:04:29;;;;;;;5.00;3.00;;;5.50;99.90;;;;;;8431714;28;20380;-71
2024/02/24 12:08:32;;;;;;;6.97;2.88;;;5.60;99.90;;;;;;8457310;27;20048;-71
2024/02/24 12:12:35;;;;;;;5.05;2.78;;;5.60;99.90;;;;;;8460071;27;20146;-71
2024/02/24 12:16:38;;;;;;;4.68;2.30;;;5.70;99.90;;;;;;8450374;27;20048;-71
2024/02/24 12:20:41;;;;;;;6.97;2.90;;;5.70;99.90;;;;;;8435625;28;20446;-71
2024/02/24 12:24:43;;;;;;;5.85;2.22;;;5.60;99.90;;;;;;8434350;28;20047;-71
2024/02/24 12:28:46;;;;;;;4.55;2.53;;;5.60;99.90;;;;;;8442432;28;20048;-71
2024/02/24 12:32:49;;;;;;;5.07;2.30;;;5.60;99.90;;;;;;8430898;28;20040;-71
2024/02/24 12:36:56;;;;;;;5.40;2.30;;;5.60;99.90;;;;;;8437526;27;20048;-71
2024/02/24 12:40:58;;;;;;;5.07;2.60;;;5.70;99.90;;;;;;8428120;28;20486;-71
2024/02/24 12:45:02;;;;;;;5.03;2.08;;;5.70;99.90;;;;;;8421590;28;20058;-71
2024/02/24 12:49:04;;;;;;;5.22;2.88;;;5.70;99.90;;;;;;8423858;27;20044;-71
2024/02/24 12:53:07;;;;;;;5.05;1.83;;;5.80;99.90;;;;;;8431561;27;20134;-71
2024/02/24 12:57:09;;;;;;;5.88;2.08;;;5.80;99.90;;;;;;8425566;28;20051;-71
2024/02/24 13:01:13;;;;;;;6.00;1.92;;;5.80;99.90;;;;;;8426759;28;20051;-71
2024/02/24 13:05:15;;;;;;;3.88;1.52;;;5.70;99.90;;;;;;8431960;27;20824;-73
2024/02/24 13:09:17;;;;;;;3.78;1.73;;;5.70;99.90;;;;;;8441280;28;20043;-71
2024/02/24 13:13:19;;;;;;;4.60;1.70;;;5.80;99.90;;;;;;8427932;28;20062;-71
2024/02/24 13:17:21;;;;;;;4.47;2.00;;;5.90;99.90;;;;;;8421424;28;20396;-71
2024/02/24 13:21:23;;;;;;;4.80;2.17;;;6.00;99.90;;;;;;8428296;28;20690;-71
2024/02/24 13:25:26;;;;;;;4.53;1.83;;;6.00;99.90;;;;;;8423422;28;20044;-71
2024/02/24 13:29:29;;;;;;;3.83;1.67;;;6.00;99.90;;;;;;8424724;28;20067;-71
2024/02/24 13:33:31;;;;;;;4.63;2.00;;;5.90;99.90;;;;;;8435351;28;20047;-71
2024/02/24 13:37:33;;;;;;;4.78;2.25;;;6.00;99.90;;;;;;8433252;28;20071;-71
2024/02/24 13:41:36;;;;;;;4.22;2.17;;;5.90;99.90;;;;;;8422797;28;20047;-71
2024/02/24 13:45:42;;;;;;;5.63;2.17;;;5.90;99.90;;;;;;8428548;28;20055;-71
2024/02/24 13:49:43;;;;;;;5.72;2.35;;;5.90;99.90;;;;;;8434205;28;20430;-71
2024/02/24 13:53:45;;;;;;;5.15;2.40;;;5.70;99.90;;;;;;8422555;28;20043;-71
2024/02/24 13:57:47;;;;;;;4.00;2.33;;;5.50;99.90;;;;;;8420765;28;20463;-71
2024/02/24 14:01:49;;;;;;;5.22;2.08;;;5.50;99.90;;;;;;8420693;28;20040;-71
2024/02/24 14:05:51;;;;;;;3.97;1.90;;;5.60;99.90;;;;;;8423394;28;20102;-71
2024/02/24 14:09:53;;;;;;;5.70;2.40;;;5.60;99.90;;;;;;8430877;28;20447;-71
2024/02/24 14:13:55;;;;;;;5.00;2.17;;;5.70;99.90;;;;;;8419716;28;20450;-71
2024/02/24 14:17:58;;;;;;;4.78;1.88;;;5.80;99.90;;;;;;8428950;28;20074;-71
2024/02/24 14:22:00;;;;;;;3.88;2.03;;;6.00;99.90;;;;;;8427559;28;20441;-71
2024/02/24 14:26:02;;;;;;;5.93;2.38;;;6.30;99.90;;;;;;8423506;28;20544;-71
2024/02/24 14:30:04;;;;;;;5.70;2.20;;;6.70;99.90;;;;;;8424550;28;20466;-71
2024/02/24 14:34:06;;;;;;;4.80;2.60;;;7.00;99.90;;;;;;8427063;28;20131;-71
2024/02/24 14:38:09;;;;;;;5.15;3.08;;;7.10;99.90;;;;;;8417925;28;20063;-71
2024/02/24 14:42:10;;;;;;;5.75;2.88;;;7.10;99.90;;;;;;8425479;28;20051;-71
2024/02/24 14:46:12;;;;;;;5.90;3.03;;;7.10;99.90;;;;;;8421015;28;20054;-71
2024/02/24 14:50:14;;;;;;;5.50;3.00;;;7.10;99.90;;;;;;8418560;28;20036;-71
2024/02/24 14:54:16;;;;;;;5.90;2.65;;;7.10;99.90;;;;;;8417180;28;20534;-71
2024/02/24 14:58:19;;;;;;;4.45;2.50;;;7.10;99.90;;;;;;8451985;27;20048;-71
2024/02/24 15:02:21;;;;;;;7.07;2.50;;;7.10;99.90;;;;;;8420051;28;20571;-71
2024/02/24 15:06:45;;;;;;;6.93;2.88;;;7.00;99.90;;;;;;8427444;28;20044;-71
2024/02/24 15:10:47;;;;;;;5.72;2.72;;;6.80;99.90;;;;;;8416369;28;20075;-71
2024/02/24 15:14:49;;;;;;;5.28;2.53;;;6.70;99.90;;;;;;8438150;28;20043;-71
2024/02/24 15:18:51;;;;;;;6.70;2.30;;;6.70;99.90;;;;;;8431311;28;20334;-71
2024/02/24 15:22:53;;;;;;;5.55;2.17;;;6.70;99.90;;;;;;8422149;28;20047;-71
2024/02/24 15:26:54;;;;;;;4.50;2.00;;;6.70;99.90;;;;;;8420118;28;20726;-71
2024/02/24 15:30:56;;;;;;;4.05;2.00;;;6.70;99.90;;;;;;8427205;28;20067;-71
2024/02/24 15:34:58;;;;;;;4.18;2.03;;;6.70;99.90;;;;;;8427890;28;20553;-71
2024/02/24 15:39:00;;;;;;;4.43;2.30;;;6.70;99.90;;;;;;8431839;28;20054;-71
2024/02/24 15:43:02;;;;;;;7.40;2.22;;;6.60;99.90;;;;;;8429225;28;20044;-71
2024/02/24 15:47:04;;;;;;;6.10;2.50;;;6.60;99.90;;;;;;8420818;28;20044;-71
2024/02/24 15:51:06;;;;;;;6.70;3.00;;;6.50;99.90;;;;;;8417713;28;20048;-71
2024/02/24 15:55:08;;;;;;;5.40;2.67;;;6.60;99.90;;;;;;8427252;28;20052;-71
2024/02/24 15:59:10;;;;;;;7.07;2.85;;;6.70;99.90;;;;;;8420453;28;20048;-71
2024/02/24 16:03:12;;;;;;;4.90;2.80;;;6.70;99.90;;;;;;8423257;28;20051;-71
2024/02/24 16:07:14;;;;;;;5.22;2.72;;;6.80;99.90;;;;;;8425155;28;20044;-71
2024/02/24 16:11:15;;;;;;;5.72;2.40;;;6.90;99.90;;;;;;8438160;28;20139;-71
2024/02/24 16:15:17;;;;;;;5.82;2.50;;;7.00;99.90;;;;;;8430002;28;20139;-71
2024/02/24 16:19:19;;;;;;;5.38;2.15;;;7.00;99.90;;;;;;8436896;28;20062;-71
2024/02/24 16:23:21;;;;;;;7.55;2.53;;;6.80;99.90;;;;;;8441548;28;20047;-71
2024/02/24 16:27:23;;;;;;;5.55;2.22;;;6.80;99.90;;;;;;8437027;28;20036;-71
2024/02/24 16:31:25;;;;;;;5.30;2.42;;;6.70;99.90;;;;;;8428227;28;20044;-71
2024/02/24 16:35:26;;;;;;;6.20;2.67;;;6.60;99.90;;;;;;8435888;27;20129;-71
2024/02/24 16:40:00;;;;;;;7.60;2.40;;;6.50;99.90;;;;;;8428429;28;20126;-71
2024/02/24 16:44:03;;;;;;;6.35;2.28;;;6.40;99.90;;;;;;8430977;28;20063;-71
2024/02/24 16:48:14;;;;;;;5.93;2.58;;;6.40;99.90;;;;;;8429031;28;20043;-71
2024/02/24 16:52:17;;;;;;;5.57;2.83;;;6.30;99.90;;;;;;8446538;28;20139;-71
2024/02/24 16:56:18;;;;;;;5.50;2.75;;;6.20;99.90;;;;;;8421550;28;20101;-71
2024/02/24 17:00:21;;;;;;;5.45;2.42;;;6.20;99.90;;;;;;8437451;27;20082;-71
2024/02/24 17:04:23;;;;;;;4.30;2.35;;;6.10;99.90;;;;;;8427228;28;20074;-71
2024/02/24 17:08:25;;;;;;;5.45;2.60;;;6.10;99.90;;;;;;8422007;28;20399;-71
2024/02/24 17:12:26;;;;;;;5.82;2.13;;;6.00;99.90;;;;;;8427724;27;20156;-71
2024/02/24 17:16:28;;;;;;;4.10;2.20;;;6.00;99.90;;;;;;8429844;27;20048;-71
2024/02/24 17:20:34;;;;;;;5.13;2.40;;;6.00;99.90;;;;;;8437057;27;20055;-71
2024/02/24 17:24:36;;;;;;;5.00;2.53;;;5.90;99.90;;;;;;8427366;28;20541;-71
2024/02/24 17:28:38;;;;;;;7.70;2.70;;;5.90;99.90;;;;;;8429109;27;20044;-72
2024/02/24 17:32:40;;;;;;;4.93;2.45;;;5.90;99.90;;;;;;8424381;28;20104;-71
2024/02/24 17:36:45;;;;;;;5.78;2.60;;;5.90;99.90;;;;;;8424301;28;20059;-71
2024/02/24 17:40:50;;;;;;;6.03;2.78;;;5.80;99.90;;;;;;8436957;28;20055;-71
2024/02/24 17:44:52;;;;;;;6.82;2.72;;;5.80;99.90;;;;;;8433680;28;20056;-71
2024/02/24 17:48:54;;;;;;;6.07;2.47;;;5.80;99.90;;;;;;8436514;27;20509;-71
2024/02/24 17:52:58;;;;;;;6.47;2.80;;;5.80;99.90;;;;;;8429168;27;20047;-71
2024/02/24 17:57:00;;;;;;;5.88;2.75;;;5.70;99.90;;;;;;8421855;28;20101;-71
2024/02/24 18:01:02;;;;;;;5.20;2.58;;;5.70;99.90;;;;;;8454091;27;20069;-71
2024/02/24 18:05:05;;;;;;;5.80;2.45;;;5.70;99.90;;;;;;8421585;27;20109;-71
2024/02/24 18:09:06;;;;;;;7.53;2.38;;;5.70;99.90;;;;;;8427977;28;22633;-71
2024/02/24 18:13:08;;;;;;;4.75;2.63;;;5.70;99.90;;;;;;8423129;27;20063;-71
2024/02/24 18:17:10;;;;;;;7.22;2.67;;;5.70;99.90;;;;;;8425254;27;20060;-71
2024/02/24 18:21:17;;;;;;;5.35;2.38;;;5.60;99.90;;;;;;8425730;28;20055;-71
2024/02/24 18:25:19;;;;;;;5.85;2.90;;;5.60;99.90;;;;;;8423079;27;20043;-71
2024/02/24 18:29:21;;;;;;;5.53;3.25;;;5.60;99.90;;;;;;8433410;28;20043;-71
2024/02/24 18:33:23;;;;;;;5.90;2.88;;;5.60;99.90;;;;;;8426552;28;20627;-71
2024/02/24 18:37:25;;;;;;;6.20;3.05;;;5.60;99.90;;;;;;8433080;27;20058;-71
2024/02/24 18:41:33;;;;;;;5.47;2.90;;;5.60;99.90;;;;;;8431772;28;20044;-71
2024/02/24 18:45:35;;;;;;;5.47;2.78;;;5.60;99.90;;;;;;8420911;28;20503;-71
2024/02/24 18:49:37;;;;;;;6.05;3.33;;;5.60;99.90;;;;;;8423312;28;20055;-71
2024/02/24 18:53:39;;;;;;;6.00;3.22;;;5.60;99.90;;;;;;8418234;28;20044;-72
2024/02/24 18:57:41;;;;;;;7.70;3.45;;;5.70;99.90;;;;;;8428839;28;20459;-71
2024/02/24 19:01:43;;;;;;;5.40;2.90;;;5.70;99.90;;;;;;8431718;28;20397;-71
2024/02/24 19:05:45;;;;;;;5.43;2.80;;;5.70;99.90;;;;;;8417641;28;20332;-71
2024/02/24 19:09:47;;;;;;;6.30;2.95;;;5.80;99.90;;;;;;8426245;28;20044;-71
2024/02/24 19:13:48;;;;;;;6.18;3.10;;;5.80;99.90;;;;;;8432418;28;24073;-72
2024/02/24 19:17:50;;;;;;;6.05;2.80;;;5.80;99.90;;;;;;8419240;28;20051;-71
2024/02/24 19:21:52;;;;;;;6.40;3.38;;;5.90;99.90;;;;;;8425775;28;20067;-71
2024/02/24 19:25:54;;;;;;;6.38;3.05;;;5.90;99.90;;;;;;8424336;28;20043;-71
2024/02/24 19:29:56;;;;;;;5.60;3.20;;;5.90;99.90;;;;;;8421199;28;20036;-71
2024/02/24 19:34:19;;;;;;;7.15;3.10;;;5.90;99.90;;;;;;8420018;28;20040;-71
2024/02/24 19:38:23;;;;;;;6.00;2.70;;;6.00;99.90;;;;;;8422224;28;20167;-71
2024/02/24 19:42:28;;;;;;;7.07;2.47;;;6.00;99.90;;;;;;8422203;28;20150;-71
2024/02/24 19:46:30;;;;;;;6.25;2.70;;;6.00;99.90;;;;;;8419860;28;20090;-71
2024/02/24 19:50:32;;;;;;;4.68;2.47;;;6.00;99.90;;;;;;8421756;28;20072;-71
2024/02/24 19:54:34;;;;;;;5.68;3.30;;;6.00;99.90;;;;;;8420583;28;20486;-71
2024/02/24 19:58:36;;;;;;;7.53;2.88;;;6.00;99.90;;;;;;8434551;28;20060;-71
2024/02/24 20:02:52;;;;;;;5.80;2.45;;;6.00;99.90;;;;;;8437930;28;20048;-71
2024/02/24 20:06:54;;;;;;;7.22;3.13;;;6.00;99.90;;;;;;8429219;28;20036;-71
2024/02/24 20:10:56;;;;;;;5.55;2.72;;;6.00;99.90;;;;;;8432280;27;20044;-71
2024/02/24 20:14:57;;;;;;;7.43;3.25;;;6.00;99.90;;;;;;8425685;27;20046;-73
2024/02/24 20:18:59;;;;;;;3.97;1.98;;;6.00;99.90;;;;;;8430451;28;20396;-71
2024/02/24 20:23:02;;;;;;;7.20;3.05;;;6.00;99.90;;;;;;8431153;28;20078;-71
2024/02/24 20:27:04;;;;;;;5.55;2.80;;;6.10;99.90;;;;;;8427459;27;20047;-71
2024/02/24 20:31:06;;;;;;;6.80;2.88;;;6.00;99.90;;;;;;8437781;28;20088;-71
2024/02/24 20:35:08;;;;;;;4.85;2.55;;;6.00;99.90;;;;;;8427983;28;20048;-71
2024/02/24 20:39:11;;;;;;;5.28;2.60;;;6.00;99.90;;;;;;8435044;28;20067;-71
2024/02/24 20:43:13;;;;;;;5.85;2.75;;;6.00;99.90;;;;;;8435346;28;20540;-71
2024/02/24 20:47:15;;;;;;;4.63;2.38;;;6.00;99.90;;;;;;8420493;28;20097;-71
2024/02/24 20:51:17;;;;;;;5.40;1.92;;;6.10;99.90;;;;;;8430146;28;20047;-71
2024/02/24 20:55:18;;;;;;;4.95;2.88;;;6.10;99.90;;;;;;8458912;27;20040;-71
2024/02/24 20:59:20;;;;;;;4.97;2.40;;;6.10;99.90;;;;;;8436717;28;20036;-71
2024/02/24 21:03:22;;;;;;;6.22;2.25;;;6.10;99.90;;;;;;8431346;28;20104;-71
2024/02/24 21:07:24;;;;;;;5.65;2.53;;;6.10;99.90;;;;;;8424806;28;20044;-71
2024/02/24 21:11:26;;;;;;;5.85;2.83;;;6.10;99.90;;;;;;8430968;28;20434;-71
2024/02/24 21:15:28;;;;;;;6.40;2.30;;;6.10;99.90;;;;;;8431949;28;20091;-71